sensor_id;sensor_type;location;lat;lon;timestamp;temperature;humidity
51007;DHT22;37034;47.886;-3.904;2023-05-18T00:00:35;15.90;72.20
51007;DHT22;37034;47.886;-3.904;2023-05-18T00:03:00;15.90;72.20
51007;DHT22;37034;47.886;-3.904;2023-05-18T00:05:27;15.90;72.40
51007;DHT22;37034;47.886;-3.904;2023-05-18T00:07:58;15.80;72.60
51007;DHT22;37034;47.886;-3.904;2023-05-18T00:10:24;15.80;72.30
51007;DHT22;37034;47.886;-3.904;2023-05-18T00:12:50;15.80;72.30
51007;DHT22;37034;47.886;-3.904;2023-05-18T00:15:16;15.80;72.20
51007;DHT22;37034;47.886;-3.904;2023-05-18T00:17:42;15.80;72.40
51007;DHT22;37034;47.886;-3.904;2023-05-18T00:20:08;15.70;72.30
51007;DHT22;37034;47.886;-3.904;2023-05-18T00:22:34;15.70;72.30
51007;DHT22;37034;47.886;-3.904;2023-05-18T00:25:00;15.70;72.50
51007;DHT22;37034;47.886;-3.904;2023-05-18T00:27:25;15.70;72.30
51007;DHT22;37034;47.886;-3.904;2023-05-18T00:29:51;15.70;72.20
51007;DHT22;37034;47.886;-3.904;2023-05-18T00:32:17;15.70;72.20
51007;DHT22;37034;47.886;-3.904;2023-05-18T00:34:42;15.60;72.10
51007;DHT22;37034;47.886;-3.904;2023-05-18T00:37:08;15.70;72.00
51007;DHT22;37034;47.886;-3.904;2023-05-18T00:39:34;15.70;72.00
51007;DHT22;37034;47.886;-3.904;2023-05-18T00:41:59;15.50;71.90
51007;DHT22;37034;47.886;-3.904;2023-05-18T00:44:25;15.60;72.30
51007;DHT22;37034;47.886;-3.904;2023-05-18T00:46:51;15.60;72.80
51007;DHT22;37034;47.886;-3.904;2023-05-18T00:49:16;15.60;71.70
51007;DHT22;37034;47.886;-3.904;2023-05-18T00:51:43;15.60;71.80
51007;DHT22;37034;47.886;-3.904;2023-05-18T00:54:10;15.60;71.70
51007;DHT22;37034;47.886;-3.904;2023-05-18T00:56:36;15.60;71.70
51007;DHT22;37034;47.886;-3.904;2023-05-18T00:59:06;15.60;71.80
51007;DHT22;37034;47.886;-3.904;2023-05-18T01:01:34;15.50;71.90
51007;DHT22;37034;47.886;-3.904;2023-05-18T01:04:02;15.50;72.00
51007;DHT22;37034;47.886;-3.904;2023-05-18T01:06:29;15.50;71.80
51007;DHT22;37034;47.886;-3.904;2023-05-18T01:09:03;15.40;72.00
51007;DHT22;37034;47.886;-3.904;2023-05-18T01:14:23;15.40;72.60
51007;DHT22;37034;47.886;-3.904;2023-05-18T01:17:19;15.30;72.20
51007;DHT22;37034;47.886;-3.904;2023-05-18T01:20:08;15.30;72.30
51007;DHT22;37034;47.886;-3.904;2023-05-18T01:25:33;15.20;72.90
51007;DHT22;37034;47.886;-3.904;2023-05-18T01:28:05;15.20;72.60
51007;DHT22;37034;47.886;-3.904;2023-05-18T01:30:39;15.20;72.90
51007;DHT22;37034;47.886;-3.904;2023-05-18T01:33:07;15.10;73.00
51007;DHT22;37034;47.886;-3.904;2023-05-18T01:35:34;15.10;72.90
51007;DHT22;37034;47.886;-3.904;2023-05-18T01:38:00;15.10;72.80
51007;DHT22;37034;47.886;-3.904;2023-05-18T01:40:29;15.10;73.40
51007;DHT22;37034;47.886;-3.904;2023-05-18T01:42:59;15.10;72.70
51007;DHT22;37034;47.886;-3.904;2023-05-18T01:45:28;15.10;73.10
51007;DHT22;37034;47.886;-3.904;2023-05-18T01:47:58;15.00;72.90
51007;DHT22;37034;47.886;-3.904;2023-05-18T01:50:35;15.00;72.80
51007;DHT22;37034;47.886;-3.904;2023-05-18T01:55:44;14.90;73.90
51007;DHT22;37034;47.886;-3.904;2023-05-18T01:58:11;15.00;73.00
51007;DHT22;37034;47.886;-3.904;2023-05-18T02:00:37;15.00;73.50
51007;DHT22;37034;47.886;-3.904;2023-05-18T02:03:04;15.00;73.10
51007;DHT22;37034;47.886;-3.904;2023-05-18T02:05:30;15.00;73.10
51007;DHT22;37034;47.886;-3.904;2023-05-18T02:07:56;15.00;73.30
51007;DHT22;37034;47.886;-3.904;2023-05-18T02:10:22;15.00;73.40
51007;DHT22;37034;47.886;-3.904;2023-05-18T02:12:48;14.90;73.50
51007;DHT22;37034;47.886;-3.904;2023-05-18T02:15:17;14.90;73.80
51007;DHT22;37034;47.886;-3.904;2023-05-18T02:17:42;14.90;73.80
51007;DHT22;37034;47.886;-3.904;2023-05-18T02:20:08;14.90;74.00
51007;DHT22;37034;47.886;-3.904;2023-05-18T02:22:35;14.80;74.60
51007;DHT22;37034;47.886;-3.904;2023-05-18T02:25:02;14.80;74.60
51007;DHT22;37034;47.886;-3.904;2023-05-18T02:27:27;14.80;74.50
51007;DHT22;37034;47.886;-3.904;2023-05-18T02:29:53;14.80;75.30
51007;DHT22;37034;47.886;-3.904;2023-05-18T02:32:19;14.80;74.90
51007;DHT22;37034;47.886;-3.904;2023-05-18T02:34:45;14.80;74.80
51007;DHT22;37034;47.886;-3.904;2023-05-18T02:37:11;14.80;75.10
51007;DHT22;37034;47.886;-3.904;2023-05-18T02:39:38;14.80;75.00
51007;DHT22;37034;47.886;-3.904;2023-05-18T02:42:04;14.80;74.80
51007;DHT22;37034;47.886;-3.904;2023-05-18T02:44:30;14.80;75.30
51007;DHT22;37034;47.886;-3.904;2023-05-18T02:46:56;14.80;75.00
51007;DHT22;37034;47.886;-3.904;2023-05-18T02:49:21;14.80;75.10
51007;DHT22;37034;47.886;-3.904;2023-05-18T02:51:47;14.80;75.70
51007;DHT22;37034;47.886;-3.904;2023-05-18T02:54:13;14.80;75.40
51007;DHT22;37034;47.886;-3.904;2023-05-18T02:56:38;14.80;75.70
51007;DHT22;37034;47.886;-3.904;2023-05-18T02:59:06;14.80;75.60
51007;DHT22;37034;47.886;-3.904;2023-05-18T03:01:31;14.80;75.60
51007;DHT22;37034;47.886;-3.904;2023-05-18T03:03:59;14.80;75.90
51007;DHT22;37034;47.886;-3.904;2023-05-18T03:06:25;14.80;75.70
51007;DHT22;37034;47.886;-3.904;2023-05-18T03:08:52;14.90;75.60
51007;DHT22;37034;47.886;-3.904;2023-05-18T03:11:21;14.90;75.90
51007;DHT22;37034;47.886;-3.904;2023-05-18T03:13:47;14.90;75.80
51007;DHT22;37034;47.886;-3.904;2023-05-18T03:16:13;14.90;76.40
51007;DHT22;37034;47.886;-3.904;2023-05-18T03:18:39;14.80;76.30
51007;DHT22;37034;47.886;-3.904;2023-05-18T03:21:05;14.80;76.90
51007;DHT22;37034;47.886;-3.904;2023-05-18T03:23:33;14.70;76.90
51007;DHT22;37034;47.886;-3.904;2023-05-18T03:25:58;14.80;76.90
51007;DHT22;37034;47.886;-3.904;2023-05-18T03:28:27;14.80;77.40
51007;DHT22;37034;47.886;-3.904;2023-05-18T03:30:53;14.70;77.30
51007;DHT22;37034;47.886;-3.904;2023-05-18T03:33:19;14.60;77.60
51007;DHT22;37034;47.886;-3.904;2023-05-18T03:35:45;14.70;78.10
51007;DHT22;37034;47.886;-3.904;2023-05-18T03:38:10;14.60;77.90
51007;DHT22;37034;47.886;-3.904;2023-05-18T03:40:36;14.60;78.00
51007;DHT22;37034;47.886;-3.904;2023-05-18T03:43:02;14.60;78.20
51007;DHT22;37034;47.886;-3.904;2023-05-18T03:45:27;14.60;78.60
51007;DHT22;37034;47.886;-3.904;2023-05-18T03:47:53;14.40;78.40
51007;DHT22;37034;47.886;-3.904;2023-05-18T03:50:19;14.50;78.40
51007;DHT22;37034;47.886;-3.904;2023-05-18T03:52:45;14.40;78.70
51007;DHT22;37034;47.886;-3.904;2023-05-18T03:55:11;14.40;78.60
51007;DHT22;37034;47.886;-3.904;2023-05-18T03:57:37;14.40;78.80
51007;DHT22;37034;47.886;-3.904;2023-05-18T04:00:04;14.40;78.90
51007;DHT22;37034;47.886;-3.904;2023-05-18T04:02:32;14.50;78.80
51007;DHT22;37034;47.886;-3.904;2023-05-18T04:04:57;14.50;78.80
51007;DHT22;37034;47.886;-3.904;2023-05-18T04:07:23;14.50;78.90
51007;DHT22;37034;47.886;-3.904;2023-05-18T04:09:54;14.50;78.40
51007;DHT22;37034;47.886;-3.904;2023-05-18T04:12:20;14.50;78.50
51007;DHT22;37034;47.886;-3.904;2023-05-18T04:14:45;14.40;78.60
51007;DHT22;37034;47.886;-3.904;2023-05-18T04:17:18;14.40;78.90
51007;DHT22;37034;47.886;-3.904;2023-05-18T04:19:47;14.40;78.90
51007;DHT22;37034;47.886;-3.904;2023-05-18T04:22:13;14.30;78.90
51007;DHT22;37034;47.886;-3.904;2023-05-18T04:24:39;14.30;79.40
51007;DHT22;37034;47.886;-3.904;2023-05-18T04:27:05;14.30;79.10
51007;DHT22;37034;47.886;-3.904;2023-05-18T04:29:31;14.30;79.00
51007;DHT22;37034;47.886;-3.904;2023-05-18T04:31:57;14.30;79.20
51007;DHT22;37034;47.886;-3.904;2023-05-18T04:34:28;14.30;79.10
51007;DHT22;37034;47.886;-3.904;2023-05-18T04:36:55;14.30;79.20
51007;DHT22;37034;47.886;-3.904;2023-05-18T04:39:23;14.30;79.00
51007;DHT22;37034;47.886;-3.904;2023-05-18T04:41:49;14.40;79.00
51007;DHT22;37034;47.886;-3.904;2023-05-18T04:44:28;14.40;79.60
51007;DHT22;37034;47.886;-3.904;2023-05-18T04:46:55;14.50;79.00
51007;DHT22;37034;47.886;-3.904;2023-05-18T04:49:21;14.50;78.90
51007;DHT22;37034;47.886;-3.904;2023-05-18T04:51:53;14.40;79.00
51007;DHT22;37034;47.886;-3.904;2023-05-18T04:54:26;14.40;79.10
51007;DHT22;37034;47.886;-3.904;2023-05-18T04:56:55;14.40;79.20
51007;DHT22;37034;47.886;-3.904;2023-05-18T04:59:22;14.40;79.50
51007;DHT22;37034;47.886;-3.904;2023-05-18T05:01:51;14.40;79.20
51007;DHT22;37034;47.886;-3.904;2023-05-18T05:04:17;14.40;79.40
51007;DHT22;37034;47.886;-3.904;2023-05-18T05:06:43;14.40;80.40
51007;DHT22;37034;47.886;-3.904;2023-05-18T05:09:08;14.40;79.60
51007;DHT22;37034;47.886;-3.904;2023-05-18T05:11:34;14.40;79.80
51007;DHT22;37034;47.886;-3.904;2023-05-18T05:14:01;14.30;80.00
51007;DHT22;37034;47.886;-3.904;2023-05-18T05:16:27;14.20;80.40
51007;DHT22;37034;47.886;-3.904;2023-05-18T05:18:53;14.30;80.20
51007;DHT22;37034;47.886;-3.904;2023-05-18T05:21:19;14.40;80.10
51007;DHT22;37034;47.886;-3.904;2023-05-18T05:23:44;14.30;80.00
51007;DHT22;37034;47.886;-3.904;2023-05-18T05:26:10;14.40;80.20
51007;DHT22;37034;47.886;-3.904;2023-05-18T05:28:36;14.50;79.90
51007;DHT22;37034;47.886;-3.904;2023-05-18T05:31:02;14.50;80.10
51007;DHT22;37034;47.886;-3.904;2023-05-18T05:33:27;14.50;80.20
51007;DHT22;37034;47.886;-3.904;2023-05-18T05:35:53;14.70;80.30
51007;DHT22;37034;47.886;-3.904;2023-05-18T05:38:19;14.70;80.10
51007;DHT22;37034;47.886;-3.904;2023-05-18T05:40:44;14.80;80.10
51007;DHT22;37034;47.886;-3.904;2023-05-18T05:43:10;14.90;80.30
51007;DHT22;37034;47.886;-3.904;2023-05-18T05:45:36;14.90;80.00
51007;DHT22;37034;47.886;-3.904;2023-05-18T05:48:01;15.00;79.90
51007;DHT22;37034;47.886;-3.904;2023-05-18T05:50:27;15.00;80.00
51007;DHT22;37034;47.886;-3.904;2023-05-18T05:52:53;15.10;80.10
51007;DHT22;37034;47.886;-3.904;2023-05-18T05:55:19;15.10;80.00
51007;DHT22;37034;47.886;-3.904;2023-05-18T05:57:44;15.20;80.30
51007;DHT22;37034;47.886;-3.904;2023-05-18T06:00:13;15.20;80.00
51007;DHT22;37034;47.886;-3.904;2023-05-18T06:02:39;15.20;80.10
51007;DHT22;37034;47.886;-3.904;2023-05-18T06:05:06;15.30;80.10
51007;DHT22;37034;47.886;-3.904;2023-05-18T06:07:32;15.40;80.10
51007;DHT22;37034;47.886;-3.904;2023-05-18T06:09:58;15.50;80.30
51007;DHT22;37034;47.886;-3.904;2023-05-18T06:12:23;15.60;80.10
51007;DHT22;37034;47.886;-3.904;2023-05-18T06:14:49;15.60;79.80
51007;DHT22;37034;47.886;-3.904;2023-05-18T06:17:18;15.60;79.90
51007;DHT22;37034;47.886;-3.904;2023-05-18T06:19:44;15.70;80.00
51007;DHT22;37034;47.886;-3.904;2023-05-18T06:22:10;15.70;80.10
51007;DHT22;37034;47.886;-3.904;2023-05-18T06:24:36;15.80;80.10
51007;DHT22;37034;47.886;-3.904;2023-05-18T06:27:02;15.80;80.00
51007;DHT22;37034;47.886;-3.904;2023-05-18T06:29:28;15.90;80.10
51007;DHT22;37034;47.886;-3.904;2023-05-18T06:31:55;15.90;80.50
51007;DHT22;37034;47.886;-3.904;2023-05-18T06:34:21;16.00;80.00
51007;DHT22;37034;47.886;-3.904;2023-05-18T06:36:47;16.10;80.10
51007;DHT22;37034;47.886;-3.904;2023-05-18T06:39:13;16.20;80.10
51007;DHT22;37034;47.886;-3.904;2023-05-18T06:41:38;16.20;80.00
51007;DHT22;37034;47.886;-3.904;2023-05-18T06:44:04;16.30;80.10
51007;DHT22;37034;47.886;-3.904;2023-05-18T06:46:30;16.40;80.00
51007;DHT22;37034;47.886;-3.904;2023-05-18T06:48:56;16.40;80.00
51007;DHT22;37034;47.886;-3.904;2023-05-18T06:51:22;16.50;80.00
51007;DHT22;37034;47.886;-3.904;2023-05-18T06:53:47;16.70;79.80
51007;DHT22;37034;47.886;-3.904;2023-05-18T06:56:14;16.80;79.70
51007;DHT22;37034;47.886;-3.904;2023-05-18T06:58:41;16.80;79.80
51007;DHT22;37034;47.886;-3.904;2023-05-18T07:01:08;17.00;79.70
51007;DHT22;37034;47.886;-3.904;2023-05-18T07:03:33;17.10;79.70
51007;DHT22;37034;47.886;-3.904;2023-05-18T07:06:00;17.20;79.60
51007;DHT22;37034;47.886;-3.904;2023-05-18T07:08:26;17.20;78.80
51007;DHT22;37034;47.886;-3.904;2023-05-18T07:10:52;17.20;79.30
51007;DHT22;37034;47.886;-3.904;2023-05-18T07:13:18;17.30;79.40
51007;DHT22;37034;47.886;-3.904;2023-05-18T07:15:44;17.40;79.60
51007;DHT22;37034;47.886;-3.904;2023-05-18T07:18:10;17.50;79.60
51007;DHT22;37034;47.886;-3.904;2023-05-18T07:20:35;17.60;79.30
51007;DHT22;37034;47.886;-3.904;2023-05-18T07:23:01;17.70;79.30
51007;DHT22;37034;47.886;-3.904;2023-05-18T07:25:27;17.80;79.50
51007;DHT22;37034;47.886;-3.904;2023-05-18T07:27:53;17.90;79.80
51007;DHT22;37034;47.886;-3.904;2023-05-18T07:30:20;18.00;79.90
51007;DHT22;37034;47.886;-3.904;2023-05-18T07:32:46;18.20;79.70
51007;DHT22;37034;47.886;-3.904;2023-05-18T07:35:12;18.40;79.10
51007;DHT22;37034;47.886;-3.904;2023-05-18T07:37:37;18.40;79.30
51007;DHT22;37034;47.886;-3.904;2023-05-18T07:40:03;18.50;79.20
51007;DHT22;37034;47.886;-3.904;2023-05-18T07:42:30;18.60;79.10
51007;DHT22;37034;47.886;-3.904;2023-05-18T07:44:58;18.70;79.00
51007;DHT22;37034;47.886;-3.904;2023-05-18T07:47:24;18.80;79.10
51007;DHT22;37034;47.886;-3.904;2023-05-18T07:49:50;18.90;79.00
51007;DHT22;37034;47.886;-3.904;2023-05-18T07:52:15;19.00;78.40
51007;DHT22;37034;47.886;-3.904;2023-05-18T07:54:41;18.90;78.20
51007;DHT22;37034;47.886;-3.904;2023-05-18T07:57:07;19.00;79.00
51007;DHT22;37034;47.886;-3.904;2023-05-18T07:59:33;19.20;78.80
51007;DHT22;37034;47.886;-3.904;2023-05-18T08:01:58;19.40;78.90
51007;DHT22;37034;47.886;-3.904;2023-05-18T08:04:25;19.50;78.20
51007;DHT22;37034;47.886;-3.904;2023-05-18T08:06:50;19.60;78.00
51007;DHT22;37034;47.886;-3.904;2023-05-18T08:09:19;19.60;78.10
51007;DHT22;37034;47.886;-3.904;2023-05-18T08:11:46;19.60;76.70
51007;DHT22;37034;47.886;-3.904;2023-05-18T08:14:12;19.60;77.30
51007;DHT22;37034;47.886;-3.904;2023-05-18T08:16:38;19.60;77.20
51007;DHT22;37034;47.886;-3.904;2023-05-18T08:19:04;19.60;76.40
51007;DHT22;37034;47.886;-3.904;2023-05-18T08:21:30;19.70;77.70
51007;DHT22;37034;47.886;-3.904;2023-05-18T08:23:55;19.90;77.20
51007;DHT22;37034;47.886;-3.904;2023-05-18T08:26:21;19.90;77.00
51007;DHT22;37034;47.886;-3.904;2023-05-18T08:28:47;20.00;77.00
51007;DHT22;37034;47.886;-3.904;2023-05-18T08:31:16;20.10;76.20
51007;DHT22;37034;47.886;-3.904;2023-05-18T08:33:41;20.20;76.20
51007;DHT22;37034;47.886;-3.904;2023-05-18T08:36:07;20.20;75.70
51007;DHT22;37034;47.886;-3.904;2023-05-18T08:38:34;20.20;75.30
51007;DHT22;37034;47.886;-3.904;2023-05-18T08:41:19;20.30;76.40
51007;DHT22;37034;47.886;-3.904;2023-05-18T08:43:58;20.30;75.30
51007;DHT22;37034;47.886;-3.904;2023-05-18T08:46:32;20.20;74.50
51007;DHT22;37034;47.886;-3.904;2023-05-18T08:49:00;20.30;75.50
51007;DHT22;37034;47.886;-3.904;2023-05-18T08:51:28;20.30;75.10
51007;DHT22;37034;47.886;-3.904;2023-05-18T08:53:58;20.40;75.30
51007;DHT22;37034;47.886;-3.904;2023-05-18T08:56:24;20.60;76.20
51007;DHT22;37034;47.886;-3.904;2023-05-18T08:58:56;20.80;74.90
51007;DHT22;37034;47.886;-3.904;2023-05-18T09:01:24;20.80;73.90
51007;DHT22;37034;47.886;-3.904;2023-05-18T09:03:54;20.70;73.80
51007;DHT22;37034;47.886;-3.904;2023-05-18T09:06:23;20.80;74.70
51007;DHT22;37034;47.886;-3.904;2023-05-18T09:09:00;20.70;72.80
51007;DHT22;37034;47.886;-3.904;2023-05-18T09:11:31;20.70;73.60
51007;DHT22;37034;47.886;-3.904;2023-05-18T09:13:58;20.80;74.40
51007;DHT22;37034;47.886;-3.904;2023-05-18T09:16:25;20.90;74.20
51007;DHT22;37034;47.886;-3.904;2023-05-18T09:18:51;21.00;74.50
51007;DHT22;37034;47.886;-3.904;2023-05-18T09:21:17;21.10;74.40
51007;DHT22;37034;47.886;-3.904;2023-05-18T09:23:43;21.20;74.60
51007;DHT22;37034;47.886;-3.904;2023-05-18T09:26:09;21.30;74.80
51007;DHT22;37034;47.886;-3.904;2023-05-18T09:28:38;21.30;74.70
51007;DHT22;37034;47.886;-3.904;2023-05-18T09:31:06;21.40;72.90
51007;DHT22;37034;47.886;-3.904;2023-05-18T09:33:35;21.30;73.70
51007;DHT22;37034;47.886;-3.904;2023-05-18T09:36:07;21.30;73.50
51007;DHT22;37034;47.886;-3.904;2023-05-18T09:38:40;21.40;74.10
51007;DHT22;37034;47.886;-3.904;2023-05-18T09:41:15;21.40;73.50
51007;DHT22;37034;47.886;-3.904;2023-05-18T09:43:42;21.50;73.70
51007;DHT22;37034;47.886;-3.904;2023-05-18T09:46:12;21.60;72.70
51007;DHT22;37034;47.886;-3.904;2023-05-18T09:48:42;21.50;72.50
51007;DHT22;37034;47.886;-3.904;2023-05-18T09:51:12;21.60;73.80
51007;DHT22;37034;47.886;-3.904;2023-05-18T09:53:41;21.70;72.90
51007;DHT22;37034;47.886;-3.904;2023-05-18T09:56:07;21.80;73.80
51007;DHT22;37034;47.886;-3.904;2023-05-18T09:58:38;22.00;73.90
51007;DHT22;37034;47.886;-3.904;2023-05-18T10:01:04;22.00;72.50
51007;DHT22;37034;47.886;-3.904;2023-05-18T10:03:36;22.10;73.00
51007;DHT22;37034;47.886;-3.904;2023-05-18T10:06:07;22.20;72.20
51007;DHT22;37034;47.886;-3.904;2023-05-18T10:08:34;22.30;72.50
51007;DHT22;37034;47.886;-3.904;2023-05-18T10:11:00;22.30;73.10
51007;DHT22;37034;47.886;-3.904;2023-05-18T10:13:26;22.40;71.20
51007;DHT22;37034;47.886;-3.904;2023-05-18T10:15:55;22.30;71.20
51007;DHT22;37034;47.886;-3.904;2023-05-18T10:18:23;22.40;71.80
51007;DHT22;37034;47.886;-3.904;2023-05-18T10:20:51;22.00;71.10
51007;DHT22;37034;47.886;-3.904;2023-05-18T10:23:18;21.90;72.20
51007;DHT22;37034;47.886;-3.904;2023-05-18T10:25:46;22.10;72.50
51007;DHT22;37034;47.886;-3.904;2023-05-18T10:28:21;22.40;72.70
51007;DHT22;37034;47.886;-3.904;2023-05-18T10:30:51;22.50;71.30
51007;DHT22;37034;47.886;-3.904;2023-05-18T10:33:21;22.60;71.30
51007;DHT22;37034;47.886;-3.904;2023-05-18T10:35:48;22.70;71.90
51007;DHT22;37034;47.886;-3.904;2023-05-18T10:38:24;22.70;70.70
51007;DHT22;37034;47.886;-3.904;2023-05-18T10:40:56;22.80;70.40
51007;DHT22;37034;47.886;-3.904;2023-05-18T10:43:23;22.80;70.80
51007;DHT22;37034;47.886;-3.904;2023-05-18T10:45:57;22.90;70.60
51007;DHT22;37034;47.886;-3.904;2023-05-18T10:48:24;22.80;69.30
51007;DHT22;37034;47.886;-3.904;2023-05-18T10:50:51;22.80;69.60
51007;DHT22;37034;47.886;-3.904;2023-05-18T10:53:19;22.80;70.20
51007;DHT22;37034;47.886;-3.904;2023-05-18T10:55:51;22.50;69.40
51007;DHT22;37034;47.886;-3.904;2023-05-18T10:58:18;22.60;70.40
51007;DHT22;37034;47.886;-3.904;2023-05-18T11:00:50;22.70;70.80
51007;DHT22;37034;47.886;-3.904;2023-05-18T11:03:17;22.80;69.50
51007;DHT22;37034;47.886;-3.904;2023-05-18T11:05:51;22.60;70.20
51007;DHT22;37034;47.886;-3.904;2023-05-18T11:08:27;22.60;69.50
51007;DHT22;37034;47.886;-3.904;2023-05-18T11:11:03;22.70;70.40
51007;DHT22;37034;47.886;-3.904;2023-05-18T11:13:33;22.90;69.80
51007;DHT22;37034;47.886;-3.904;2023-05-18T11:20:59;23.10;70.00
51007;DHT22;37034;47.886;-3.904;2023-05-18T11:23:30;23.30;70.40
51007;DHT22;37034;47.886;-3.904;2023-05-18T11:25:59;23.40;69.50
51007;DHT22;37034;47.886;-3.904;2023-05-18T11:28:29;23.50;69.80
51007;DHT22;37034;47.886;-3.904;2023-05-18T11:30:55;23.50;68.90
51007;DHT22;37034;47.886;-3.904;2023-05-18T11:33:25;23.20;68.50
51007;DHT22;37034;47.886;-3.904;2023-05-18T11:41:37;23.40;69.20
51007;DHT22;37034;47.886;-3.904;2023-05-18T11:47:01;23.70;69.30
51007;DHT22;37034;47.886;-3.904;2023-05-18T11:49:28;23.80;69.00
51007;DHT22;37034;47.886;-3.904;2023-05-18T11:51:56;23.80;68.70
51007;DHT22;37034;47.886;-3.904;2023-05-18T11:54:26;23.80;67.80
51007;DHT22;37034;47.886;-3.904;2023-05-18T11:56:51;23.60;67.50
51007;DHT22;37034;47.886;-3.904;2023-05-18T12:02:02;23.40;68.00
51007;DHT22;37034;47.886;-3.904;2023-05-18T12:04:28;23.40;68.50
51007;DHT22;37034;47.886;-3.904;2023-05-18T12:06:56;23.50;69.00
51007;DHT22;37034;47.886;-3.904;2023-05-18T12:09:22;23.70;68.00
51007;DHT22;37034;47.886;-3.904;2023-05-18T12:11:49;23.70;67.60
51007;DHT22;37034;47.886;-3.904;2023-05-18T12:14:17;23.60;67.40
51007;DHT22;37034;47.886;-3.904;2023-05-18T12:16:44;23.60;67.20
51007;DHT22;37034;47.886;-3.904;2023-05-18T12:19:11;23.70;67.80
51007;DHT22;37034;47.886;-3.904;2023-05-18T12:21:37;23.70;66.90
51007;DHT22;37034;47.886;-3.904;2023-05-18T12:24:03;23.50;65.10
51007;DHT22;37034;47.886;-3.904;2023-05-18T12:26:29;23.30;65.60
51007;DHT22;37034;47.886;-3.904;2023-05-18T12:28:58;23.20;66.50
51007;DHT22;37034;47.886;-3.904;2023-05-18T12:31:24;23.40;67.20
51007;DHT22;37034;47.886;-3.904;2023-05-18T12:33:52;23.50;67.00
51007;DHT22;37034;47.886;-3.904;2023-05-18T12:36:19;23.40;64.70
51007;DHT22;37034;47.886;-3.904;2023-05-18T12:38:48;23.50;66.40
51007;DHT22;37034;47.886;-3.904;2023-05-18T12:41:24;23.50;65.60
51007;DHT22;37034;47.886;-3.904;2023-05-18T12:43:51;23.60;66.30
51007;DHT22;37034;47.886;-3.904;2023-05-18T12:46:20;23.90;67.00
51007;DHT22;37034;47.886;-3.904;2023-05-18T12:48:50;24.00;65.90
51007;DHT22;37034;47.886;-3.904;2023-05-18T12:51:20;24.20;65.40
51007;DHT22;37034;47.886;-3.904;2023-05-18T12:53:48;24.20;65.40
51007;DHT22;37034;47.886;-3.904;2023-05-18T12:56:14;24.20;65.50
51007;DHT22;37034;47.886;-3.904;2023-05-18T12:58:40;24.10;64.70
51007;DHT22;37034;47.886;-3.904;2023-05-18T13:01:09;24.20;65.50
51007;DHT22;37034;47.886;-3.904;2023-05-18T13:03:38;24.20;64.80
51007;DHT22;37034;47.886;-3.904;2023-05-18T13:06:08;24.40;66.40
51007;DHT22;37034;47.886;-3.904;2023-05-18T13:08:35;24.60;65.40
51007;DHT22;37034;47.886;-3.904;2023-05-18T13:11:05;24.70;64.30
51007;DHT22;37034;47.886;-3.904;2023-05-18T13:13:32;24.70;64.60
51007;DHT22;37034;47.886;-3.904;2023-05-18T13:15:57;24.80;62.60
51007;DHT22;37034;47.886;-3.904;2023-05-18T13:18:26;24.60;63.60
51007;DHT22;37034;47.886;-3.904;2023-05-18T13:20:54;24.40;63.40
51007;DHT22;37034;47.886;-3.904;2023-05-18T13:23:27;24.40;64.30
51007;DHT22;37034;47.886;-3.904;2023-05-18T13:25:53;24.40;63.70
51007;DHT22;37034;47.886;-3.904;2023-05-18T13:28:20;24.40;64.30
51007;DHT22;37034;47.886;-3.904;2023-05-18T13:30:47;24.50;64.60
51007;DHT22;37034;47.886;-3.904;2023-05-18T13:33:14;24.60;64.30
51007;DHT22;37034;47.886;-3.904;2023-05-18T13:35:42;24.90;64.50
51007;DHT22;37034;47.886;-3.904;2023-05-18T13:38:12;25.00;63.30
51007;DHT22;37034;47.886;-3.904;2023-05-18T13:40:39;24.90;63.40
51007;DHT22;37034;47.886;-3.904;2023-05-18T13:43:05;24.70;62.70
51007;DHT22;37034;47.886;-3.904;2023-05-18T13:45:30;24.40;61.10
51007;DHT22;37034;47.886;-3.904;2023-05-18T13:47:57;24.30;62.60
51007;DHT22;37034;47.886;-3.904;2023-05-18T13:50:23;24.20;62.40
51007;DHT22;37034;47.886;-3.904;2023-05-18T13:52:50;24.20;63.30
51007;DHT22;37034;47.886;-3.904;2023-05-18T13:55:16;24.20;62.80
51007;DHT22;37034;47.886;-3.904;2023-05-18T13:57:44;24.20;62.00
51007;DHT22;37034;47.886;-3.904;2023-05-18T14:00:10;24.10;62.50
51007;DHT22;37034;47.886;-3.904;2023-05-18T14:02:41;24.20;63.00
51007;DHT22;37034;47.886;-3.904;2023-05-18T14:05:08;24.30;63.10
51007;DHT22;37034;47.886;-3.904;2023-05-18T14:07:35;24.20;62.30
51007;DHT22;37034;47.886;-3.904;2023-05-18T14:10:02;24.10;61.90
51007;DHT22;37034;47.886;-3.904;2023-05-18T14:13:18;24.00;62.10
51007;DHT22;37034;47.886;-3.904;2023-05-18T14:16:02;23.90;61.80
51007;DHT22;37034;47.886;-3.904;2023-05-18T14:18:28;23.50;62.20
51007;DHT22;37034;47.886;-3.904;2023-05-18T14:20:54;23.50;62.60
51007;DHT22;37034;47.886;-3.904;2023-05-18T14:23:22;23.50;62.20
51007;DHT22;37034;47.886;-3.904;2023-05-18T14:25:48;23.70;63.50
51007;DHT22;37034;47.886;-3.904;2023-05-18T14:28:14;24.00;62.20
51007;DHT22;37034;47.886;-3.904;2023-05-18T14:30:40;24.00;61.10
51007;DHT22;37034;47.886;-3.904;2023-05-18T14:33:05;23.90;60.60
51007;DHT22;37034;47.886;-3.904;2023-05-18T14:35:31;24.00;59.40
51007;DHT22;37034;47.886;-3.904;2023-05-18T14:37:57;23.90;60.20
51007;DHT22;37034;47.886;-3.904;2023-05-18T14:40:22;24.10;61.00
51007;DHT22;37034;47.886;-3.904;2023-05-18T14:42:48;24.20;61.10
51007;DHT22;37034;47.886;-3.904;2023-05-18T14:45:14;24.00;60.90
51007;DHT22;37034;47.886;-3.904;2023-05-18T14:47:41;24.00;61.20
51007;DHT22;37034;47.886;-3.904;2023-05-18T14:50:06;24.00;61.20
51007;DHT22;37034;47.886;-3.904;2023-05-18T14:52:32;24.10;61.00
51007;DHT22;37034;47.886;-3.904;2023-05-18T14:54:58;24.10;61.70
51007;DHT22;37034;47.886;-3.904;2023-05-18T14:57:24;24.30;61.70
51007;DHT22;37034;47.886;-3.904;2023-05-18T14:59:49;24.30;60.80
51007;DHT22;37034;47.886;-3.904;2023-05-18T15:02:15;24.20;61.30
51007;DHT22;37034;47.886;-3.904;2023-05-18T15:04:41;24.30;61.40
51007;DHT22;37034;47.886;-3.904;2023-05-18T15:07:07;24.50;60.10
51007;DHT22;37034;47.886;-3.904;2023-05-18T15:09:32;24.60;60.90
51007;DHT22;37034;47.886;-3.904;2023-05-18T15:11:58;24.60;60.20
51007;DHT22;37034;47.886;-3.904;2023-05-18T15:14:24;24.50;60.90
51007;DHT22;37034;47.886;-3.904;2023-05-18T15:16:50;24.60;61.00
51007;DHT22;37034;47.886;-3.904;2023-05-18T15:19:16;24.70;59.60
51007;DHT22;37034;47.886;-3.904;2023-05-18T15:21:41;24.50;60.20
51007;DHT22;37034;47.886;-3.904;2023-05-18T15:24:09;24.40;59.10
51007;DHT22;37034;47.886;-3.904;2023-05-18T15:26:35;24.00;59.30
51007;DHT22;37034;47.886;-3.904;2023-05-18T15:29:01;23.90;60.40
51007;DHT22;37034;47.886;-3.904;2023-05-18T15:31:26;24.00;61.20
51007;DHT22;37034;47.886;-3.904;2023-05-18T15:33:52;24.00;60.00
51007;DHT22;37034;47.886;-3.904;2023-05-18T15:36:18;24.00;60.40
51007;DHT22;37034;47.886;-3.904;2023-05-18T15:38:45;24.00;60.60
51007;DHT22;37034;47.886;-3.904;2023-05-18T15:41:11;24.00;61.30